sensor_id;sensor_type;location;lat;lon;timestamp;P1;durP1;ratioP1;P2;durP2;ratioP2
75441;SDS011;64019;48.312;14.226;2024-03-08T00:00:19;54.23;;;19.00;;
75441;SDS011;64019;48.312;14.226;2024-03-08T00:02:45;49.60;;;19.63;;
75441;SDS011;64019;48.312;14.226;2024-03-08T00:05:12;56.57;;;19.63;;
75441;SDS011;64019;48.312;14.226;2024-03-08T00:07:39;56.83;;;20.47;;
75441;SDS011;64019;48.312;14.226;2024-03-08T00:10:05;57.67;;;20.90;;
75441;SDS011;64019;48.312;14.226;2024-03-08T00:12:36;57.27;;;20.13;;
75441;SDS011;64019;48.312;14.226;2024-03-08T00:15:09;52.03;;;18.67;;
75441;SDS011;64019;48.312;14.226;2024-03-08T00:17:36;50.67;;;18.30;;
75441;SDS011;64019;48.312;14.226;2024-03-08T00:20:02;55.77;;;20.23;;
75441;SDS011;64019;48.312;14.226;2024-03-08T00:22:33;66.50;;;20.80;;
75441;SDS011;64019;48.312;14.226;2024-03-08T00:24:59;52.37;;;20.00;;
75441;SDS011;64019;48.312;14.226;2024-03-08T00:27:26;63.33;;;20.70;;
75441;SDS011;64019;48.312;14.226;2024-03-08T00:29:52;62.23;;;21.57;;
75441;SDS011;64019;48.312;14.226;2024-03-08T00:32:18;62.33;;;20.97;;
75441;SDS011;64019;48.312;14.226;2024-03-08T00:34:43;52.20;;;19.40;;
75441;SDS011;64019;48.312;14.226;2024-03-08T00:37:09;61.17;;;22.77;;
75441;SDS011;64019;48.312;14.226;2024-03-08T00:39:35;59.20;;;20.80;;
75441;SDS011;64019;48.312;14.226;2024-03-08T00:42:01;56.20;;;18.50;;
75441;SDS011;64019;48.312;14.226;2024-03-08T00:44:26;62.47;;;21.30;;
75441;SDS011;64019;48.312;14.226;2024-03-08T00:46:52;56.53;;;20.77;;
75441;SDS011;64019;48.312;14.226;2024-03-08T00:49:18;62.97;;;22.27;;
75441;SDS011;64019;48.312;14.226;2024-03-08T00:51:43;64.03;;;23.37;;
75441;SDS011;64019;48.312;14.226;2024-03-08T00:54:09;55.87;;;20.60;;
75441;SDS011;64019;48.312;14.226;2024-03-08T00:56:35;64.50;;;20.47;;
75441;SDS011;64019;48.312;14.226;2024-03-08T00:59:02;65.30;;;22.40;;
75441;SDS011;64019;48.312;14.226;2024-03-08T01:01:28;66.77;;;21.23;;
75441;SDS011;64019;48.312;14.226;2024-03-08T01:03:54;60.27;;;19.77;;
75441;SDS011;64019;48.312;14.226;2024-03-08T01:06:20;65.20;;;21.50;;
75441;SDS011;64019;48.312;14.226;2024-03-08T01:08:46;53.20;;;20.90;;
75441;SDS011;64019;48.312;14.226;2024-03-08T01:11:14;60.63;;;20.97;;
75441;SDS011;64019;48.312;14.226;2024-03-08T01:13:40;60.30;;;20.00;;
75441;SDS011;64019;48.312;14.226;2024-03-08T01:16:06;61.07;;;20.77;;
75441;SDS011;64019;48.312;14.226;2024-03-08T01:18:32;63.80;;;20.27;;
75441;SDS011;64019;48.312;14.226;2024-03-08T01:20:57;56.50;;;21.33;;
75441;SDS011;64019;48.312;14.226;2024-03-08T01:23:23;54.27;;;19.97;;
75441;SDS011;64019;48.312;14.226;2024-03-08T01:25:49;49.63;;;17.57;;
75441;SDS011;64019;48.312;14.226;2024-03-08T01:28:21;58.57;;;20.80;;
75441;SDS011;64019;48.312;14.226;2024-03-08T01:30:51;52.00;;;18.57;;
75441;SDS011;64019;48.312;14.226;2024-03-08T01:33:24;49.10;;;18.90;;
75441;SDS011;64019;48.312;14.226;2024-03-08T01:35:51;53.47;;;18.53;;
75441;SDS011;64019;48.312;14.226;2024-03-08T01:38:17;44.73;;;19.03;;
75441;SDS011;64019;48.312;14.226;2024-03-08T01:40:43;53.27;;;19.13;;
75441;SDS011;64019;48.312;14.226;2024-03-08T01:43:19;46.83;;;18.80;;
75441;SDS011;64019;48.312;14.226;2024-03-08T01:45:47;47.10;;;17.00;;
75441;SDS011;64019;48.312;14.226;2024-03-08T01:48:14;51.00;;;18.63;;
75441;SDS011;64019;48.312;14.226;2024-03-08T01:50:42;55.30;;;18.60;;
75441;SDS011;64019;48.312;14.226;2024-03-08T01:53:08;54.43;;;19.63;;
75441;SDS011;64019;48.312;14.226;2024-03-08T01:55:37;48.43;;;18.90;;
75441;SDS011;64019;48.312;14.226;2024-03-08T01:58:07;50.50;;;18.13;;
75441;SDS011;64019;48.312;14.226;2024-03-08T02:00:36;59.10;;;19.87;;
75441;SDS011;64019;48.312;14.226;2024-03-08T02:03:05;59.00;;;18.27;;
75441;SDS011;64019;48.312;14.226;2024-03-08T02:05:31;57.73;;;19.67;;
75441;SDS011;64019;48.312;14.226;2024-03-08T02:07:57;60.07;;;18.93;;
75441;SDS011;64019;48.312;14.226;2024-03-08T02:10:23;53.87;;;20.93;;
75441;SDS011;64019;48.312;14.226;2024-03-08T02:12:49;59.07;;;20.77;;
75441;SDS011;64019;48.312;14.226;2024-03-08T02:15:15;61.27;;;20.77;;
75441;SDS011;64019;48.312;14.226;2024-03-08T02:17:41;60.57;;;19.40;;
75441;SDS011;64019;48.312;14.226;2024-03-08T02:20:07;62.17;;;20.80;;
75441;SDS011;64019;48.312;14.226;2024-03-08T02:22:35;53.30;;;19.83;;
75441;SDS011;64019;48.312;14.226;2024-03-08T02:25:02;57.53;;;21.07;;
75441;SDS011;64019;48.312;14.226;2024-03-08T02:27:28;55.97;;;19.60;;
75441;SDS011;64019;48.312;14.226;2024-03-08T02:29:55;63.63;;;21.53;;
75441;SDS011;64019;48.312;14.226;2024-03-08T02:32:22;50.20;;;18.77;;
75441;SDS011;64019;48.312;14.226;2024-03-08T02:34:48;60.43;;;19.50;;
75441;SDS011;64019;48.312;14.226;2024-03-08T02:37:14;59.03;;;21.57;;
75441;SDS011;64019;48.312;14.226;2024-03-08T02:39:41;52.07;;;19.33;;
75441;SDS011;64019;48.312;14.226;2024-03-08T02:42:06;54.13;;;19.40;;
75441;SDS011;64019;48.312;14.226;2024-03-08T02:44:32;58.20;;;19.13;;
75441;SDS011;64019;48.312;14.226;2024-03-08T02:46:58;57.70;;;19.80;;
75441;SDS011;64019;48.312;14.226;2024-03-08T02:49:25;55.13;;;19.37;;
75441;SDS011;64019;48.312;14.226;2024-03-08T02:51:51;56.27;;;19.87;;
75441;SDS011;64019;48.312;14.226;2024-03-08T02:54:18;67.10;;;20.60;;
75441;SDS011;64019;48.312;14.226;2024-03-08T02:56:44;56.83;;;19.47;;
75441;SDS011;64019;48.312;14.226;2024-03-08T02:59:11;48.70;;;19.23;;
75441;SDS011;64019;48.312;14.226;2024-03-08T03:01:38;54.33;;;19.77;;
75441;SDS011;64019;48.312;14.226;2024-03-08T03:04:04;54.97;;;19.57;;
75441;SDS011;64019;48.312;14.226;2024-03-08T03:06:30;53.77;;;17.23;;
75441;SDS011;64019;48.312;14.226;2024-03-08T03:08:56;64.07;;;19.60;;
75441;SDS011;64019;48.312;14.226;2024-03-08T03:11:25;54.50;;;20.30;;
75441;SDS011;64019;48.312;14.226;2024-03-08T03:13:52;51.40;;;18.03;;
75441;SDS011;64019;48.312;14.226;2024-03-08T03:16:20;49.10;;;16.83;;
75441;SDS011;64019;48.312;14.226;2024-03-08T03:18:46;46.30;;;17.63;;
75441;SDS011;64019;48.312;14.226;2024-03-08T03:21:12;49.63;;;17.70;;
75441;SDS011;64019;48.312;14.226;2024-03-08T03:23:39;43.20;;;17.47;;
75441;SDS011;64019;48.312;14.226;2024-03-08T03:26:06;51.10;;;17.53;;
75441;SDS011;64019;48.312;14.226;2024-03-08T03:28:38;47.63;;;17.00;;
75441;SDS011;64019;48.312;14.226;2024-03-08T03:31:07;45.83;;;16.40;;
75441;SDS011;64019;48.312;14.226;2024-03-08T03:33:39;51.60;;;17.53;;
75441;SDS011;64019;48.312;14.226;2024-03-08T03:36:05;42.53;;;14.57;;
75441;SDS011;64019;48.312;14.226;2024-03-08T03:38:33;50.10;;;15.30;;
75441;SDS011;64019;48.312;14.226;2024-03-08T03:40:59;39.17;;;14.10;;
75441;SDS011;64019;48.312;14.226;2024-03-08T03:43:31;38.67;;;14.87;;
75441;SDS011;64019;48.312;14.226;2024-03-08T03:45:57;40.23;;;16.63;;
75441;SDS011;64019;48.312;14.226;2024-03-08T03:48:23;43.80;;;14.70;;
75441;SDS011;64019;48.312;14.226;2024-03-08T03:50:48;38.50;;;15.03;;
75441;SDS011;64019;48.312;14.226;2024-03-08T03:53:15;49.80;;;14.53;;
75441;SDS011;64019;48.312;14.226;2024-03-08T03:55:41;33.97;;;12.80;;
75441;SDS011;64019;48.312;14.226;2024-03-08T03:58:06;41.87;;;15.77;;
75441;SDS011;64019;48.312;14.226;2024-03-08T04:00:33;38.63;;;15.03;;
75441;SDS011;64019;48.312;14.226;2024-03-08T04:02:58;31.80;;;12.80;;
75441;SDS011;64019;48.312;14.226;2024-03-08T04:05:25;39.70;;;14.43;;
75441;SDS011;64019;48.312;14.226;2024-03-08T04:07:51;49.93;;;16.43;;
75441;SDS011;64019;48.312;14.226;2024-03-08T04:10:17;40.83;;;15.93;;
75441;SDS011;64019;48.312;14.226;2024-03-08T04:12:43;35.90;;;14.20;;
75441;SDS011;64019;48.312;14.226;2024-03-08T04:15:08;41.87;;;14.93;;
75441;SDS011;64019;48.312;14.226;2024-03-08T04:17:36;39.47;;;14.00;;
75441;SDS011;64019;48.312;14.226;2024-03-08T04:20:05;41.67;;;14.43;;
75441;SDS011;64019;48.312;14.226;2024-03-08T04:22:38;36.37;;;12.87;;
75441;SDS011;64019;48.312;14.226;2024-03-08T04:25:04;36.60;;;15.17;;
75441;SDS011;64019;48.312;14.226;2024-03-08T04:27:31;51.50;;;15.17;;
75441;SDS011;64019;48.312;14.226;2024-03-08T04:29:58;40.60;;;14.77;;
75441;SDS011;64019;48.312;14.226;2024-03-08T04:32:24;39.73;;;13.97;;
75441;SDS011;64019;48.312;14.226;2024-03-08T04:34:50;35.83;;;14.40;;
75441;SDS011;64019;48.312;14.226;2024-03-08T04:37:16;41.13;;;13.97;;
75441;SDS011;64019;48.312;14.226;2024-03-08T04:39:47;34.07;;;13.30;;
75441;SDS011;64019;48.312;14.226;2024-03-08T04:42:13;28.77;;;13.40;;
75441;SDS011;64019;48.312;14.226;2024-03-08T04:44:39;37.80;;;15.63;;
75441;SDS011;64019;48.312;14.226;2024-03-08T04:47:05;41.50;;;15.07;;
75441;SDS011;64019;48.312;14.226;2024-03-08T04:49:32;34.43;;;13.43;;
75441;SDS011;64019;48.312;14.226;2024-03-08T04:52:00;34.70;;;14.80;;
75441;SDS011;64019;48.312;14.226;2024-03-08T04:54:27;31.37;;;13.07;;
75441;SDS011;64019;48.312;14.226;2024-03-08T04:56:53;33.13;;;13.67;;
75441;SDS011;64019;48.312;14.226;2024-03-08T04:59:19;36.90;;;14.17;;
75441;SDS011;64019;48.312;14.226;2024-03-08T05:01:45;36.17;;;12.73;;
75441;SDS011;64019;48.312;14.226;2024-03-08T05:04:12;38.37;;;13.73;;
75441;SDS011;64019;48.312;14.226;2024-03-08T05:06:38;41.97;;;14.87;;
75441;SDS011;64019;48.312;14.226;2024-03-08T05:09:04;36.63;;;15.20;;
75441;SDS011;64019;48.312;14.226;2024-03-08T05:11:42;41.63;;;16.13;;
75441;SDS011;64019;48.312;14.226;2024-03-08T05:14:12;38.50;;;14.70;;
75441;SDS011;64019;48.312;14.226;2024-03-08T05:16:47;47.83;;;16.00;;
75441;SDS011;64019;48.312;14.226;2024-03-08T05:19:16;46.93;;;15.50;;
75441;SDS011;64019;48.312;14.226;2024-03-08T05:21:48;37.20;;;13.60;;
75441;SDS011;64019;48.312;14.226;2024-03-08T05:54:57;41.73;;;14.63;;
75441;SDS011;64019;48.312;14.226;2024-03-08T06:01:42;41.03;;;14.40;;
75441;SDS011;64019;48.312;14.226;2024-03-08T06:04:47;36.60;;;15.20;;
75441;SDS011;64019;48.312;14.226;2024-03-08T06:07:28;30.67;;;12.67;;
75441;SDS011;64019;48.312;14.226;2024-03-08T06:10:15;38.10;;;14.47;;
75441;SDS011;64019;48.312;14.226;2024-03-08T06:12:54;46.83;;;15.27;;
75441;SDS011;64019;48.312;14.226;2024-03-08T06:15:38;40.83;;;14.43;;
75441;SDS011;64019;48.312;14.226;2024-03-08T06:18:09;37.70;;;14.73;;
75441;SDS011;64019;48.312;14.226;2024-03-08T06:20:39;38.00;;;14.03;;
75441;SDS011;64019;48.312;14.226;2024-03-08T06:23:09;40.30;;;14.93;;
75441;SDS011;64019;48.312;14.226;2024-03-08T06:25:35;42.73;;;15.80;;
75441;SDS011;64019;48.312;14.226;2024-03-08T06:28:07;46.93;;;14.47;;
75441;SDS011;64019;48.312;14.226;2024-03-08T06:30:32;34.33;;;14.07;;
75441;SDS011;64019;48.312;14.226;2024-03-08T06:32:59;37.57;;;13.60;;
75441;SDS011;64019;48.312;14.226;2024-03-08T06:35:25;36.63;;;14.23;;
75441;SDS011;64019;48.312;14.226;2024-03-08T06:37:51;42.63;;;13.90;;
75441;SDS011;64019;48.312;14.226;2024-03-08T06:40:16;40.43;;;14.40;;
75441;SDS011;64019;48.312;14.226;2024-03-08T06:42:42;35.10;;;13.57;;
75441;SDS011;64019;48.312;14.226;2024-03-08T06:45:08;34.93;;;13.57;;
75441;SDS011;64019;48.312;14.226;2024-03-08T06:47:35;31.77;;;12.93;;
75441;SDS011;64019;48.312;14.226;2024-03-08T06:50:02;33.97;;;13.17;;
75441;SDS011;64019;48.312;14.226;2024-03-08T06:52:28;34.83;;;12.60;;
75441;SDS011;64019;48.312;14.226;2024-03-08T06:54:54;39.57;;;14.00;;
75441;SDS011;64019;48.312;14.226;2024-03-08T06:57:22;39.30;;;13.43;;
75441;SDS011;64019;48.312;14.226;2024-03-08T06:59:48;36.83;;;14.07;;
75441;SDS011;64019;48.312;14.226;2024-03-08T07:02:14;34.57;;;13.73;;
75441;SDS011;64019;48.312;14.226;2024-03-08T07:04:40;35.47;;;13.13;;
75441;SDS011;64019;48.312;14.226;2024-03-08T07:07:05;33.57;;;12.73;;
75441;SDS011;64019;48.312;14.226;2024-03-08T07:09:37;34.53;;;13.40;;
75441;SDS011;64019;48.312;14.226;2024-03-08T07:12:03;40.93;;;14.33;;
75441;SDS011;64019;48.312;14.226;2024-03-08T07:14:29;44.37;;;15.23;;
75441;SDS011;64019;48.312;14.226;2024-03-08T07:16:56;42.90;;;15.67;;
75441;SDS011;64019;48.312;14.226;2024-03-08T07:19:22;39.00;;;14.33;;
75441;SDS011;64019;48.312;14.226;2024-03-08T07:21:49;39.33;;;15.13;;
75441;SDS011;64019;48.312;14.226;2024-03-08T07:24:14;32.57;;;13.53;;
75441;SDS011;64019;48.312;14.226;2024-03-08T07:26:43;36.17;;;13.73;;
75441;SDS011;64019;48.312;14.226;2024-03-08T07:29:09;36.87;;;13.83;;
75441;SDS011;64019;48.312;14.226;2024-03-08T07:31:34;33.60;;;14.83;;
75441;SDS011;64019;48.312;14.226;2024-03-08T07:34:15;35.53;;;13.57;;
75441;SDS011;64019;48.312;14.226;2024-03-08T07:36:41;39.27;;;14.97;;
75441;SDS011;64019;48.312;14.226;2024-03-08T07:39:07;47.07;;;15.90;;
75441;SDS011;64019;48.312;14.226;2024-03-08T07:41:37;38.53;;;14.10;;
75441;SDS011;64019;48.312;14.226;2024-03-08T07:44:05;37.67;;;14.13;;
75441;SDS011;64019;48.312;14.226;2024-03-08T07:46:32;30.67;;;13.27;;
75441;SDS011;64019;48.312;14.226;2024-03-08T07:48:59;39.47;;;14.13;;
75441;SDS011;64019;48.312;14.226;2024-03-08T07:51:25;33.23;;;13.13;;
75441;SDS011;64019;48.312;14.226;2024-03-08T07:53:51;35.20;;;13.60;;
75441;SDS011;64019;48.312;14.226;2024-03-08T07:56:16;34.47;;;13.63;;
75441;SDS011;64019;48.312;14.226;2024-03-08T07:58:43;44.13;;;14.87;;
75441;SDS011;64019;48.312;14.226;2024-03-08T08:01:18;40.13;;;14.27;;
75441;SDS011;64019;48.312;14.226;2024-03-08T08:03:45;40.20;;;13.80;;
75441;SDS011;64019;48.312;14.226;2024-03-08T08:06:11;34.53;;;13.93;;
75441;SDS011;64019;48.312;14.226;2024-03-08T08:08:44;38.13;;;14.13;;
75441;SDS011;64019;48.312;14.226;2024-03-08T08:11:10;36.10;;;12.87;;
75441;SDS011;64019;48.312;14.226;2024-03-08T08:13:42;32.67;;;14.03;;
75441;SDS011;64019;48.312;14.226;2024-03-08T08:16:08;36.33;;;13.87;;
75441;SDS011;64019;48.312;14.226;2024-03-08T08:18:35;34.73;;;14.70;;
75441;SDS011;64019;48.312;14.226;2024-03-08T08:21:02;31.00;;;12.47;;
75441;SDS011;64019;48.312;14.226;2024-03-08T08:23:28;33.57;;;13.23;;
75441;SDS011;64019;48.312;14.226;2024-03-08T08:25:55;36.57;;;14.50;;
75441;SDS011;64019;48.312;14.226;2024-03-08T08:28:20;31.30;;;12.90;;
75441;SDS011;64019;48.312;14.226;2024-03-08T08:30:46;37.90;;;12.87;;
75441;SDS011;64019;48.312;14.226;2024-03-08T08:33:18;32.50;;;13.60;;
75441;SDS011;64019;48.312;14.226;2024-03-08T08:35:44;31.37;;;12.83;;
75441;SDS011;64019;48.312;14.226;2024-03-08T08:38:12;37.97;;;15.07;;
75441;SDS011;64019;48.312;14.226;2024-03-08T08:40:38;37.67;;;13.63;;
75441;SDS011;64019;48.312;14.226;2024-03-08T08:43:04;38.33;;;13.67;;
75441;SDS011;64019;48.312;14.226;2024-03-08T08:45:30;36.90;;;13.90;;
75441;SDS011;64019;48.312;14.226;2024-03-08T08:47:56;31.60;;;12.90;;
75441;SDS011;64019;48.312;14.226;2024-03-08T08:50:24;30.80;;;11.87;;
75441;SDS011;64019;48.312;14.226;2024-03-08T08:52:51;30.73;;;10.73;;
75441;SDS011;64019;48.312;14.226;2024-03-08T08:55:18;29.67;;;11.13;;
75441;SDS011;64019;48.312;14.226;2024-03-08T08:57:46;26.47;;;11.10;;
75441;SDS011;64019;48.312;14.226;2024-03-08T09:00:13;28.33;;;11.67;;
75441;SDS011;64019;48.312;14.226;2024-03-08T09:02:42;25.80;;;10.50;;
75441;SDS011;64019;48.312;14.226;2024-03-08T09:05:08;23.57;;;10.70;;
75441;SDS011;64019;48.312;14.226;2024-03-08T09:07:33;26.87;;;11.07;;
75441;SDS011;64019;48.312;14.226;2024-03-08T09:09:59;24.57;;;10.27;;
75441;SDS011;64019;48.312;14.226;2024-03-08T09:12:25;27.70;;;10.93;;
75441;SDS011;64019;48.312;14.226;2024-03-08T09:14:51;22.57;;;9.80;;
75441;SDS011;64019;48.312;14.226;2024-03-08T09:17:17;25.80;;;10.80;;
75441;SDS011;64019;48.312;14.226;2024-03-08T09:19:48;21.27;;;10.73;;
75441;SDS011;64019;48.312;14.226;2024-03-08T09:22:14;21.20;;;9.33;;
75441;SDS011;64019;48.312;14.226;2024-03-08T09:24:39;21.33;;;9.67;;
75441;SDS011;64019;48.312;14.226;2024-03-08T09:27:05;17.30;;;7.27;;
75441;SDS011;64019;48.312;14.226;2024-03-08T09:29:31;16.90;;;7.67;;
75441;SDS011;64019;48.312;14.226;2024-03-08T09:31:57;17.93;;;7.00;;
75441;SDS011;64019;48.312;14.226;2024-03-08T09:34:22;14.83;;;7.73;;
75441;SDS011;64019;48.312;14.226;2024-03-08T09:36:48;18.77;;;8.07;;
75441;SDS011;64019;48.312;14.226;2024-03-08T09:39:17;16.07;;;6.80;;
75441;SDS011;64019;48.312;14.226;2024-03-08T09:41:44;17.17;;;7.47;;
75441;SDS011;64019;48.312;14.226;2024-03-08T09:44:13;14.97;;;7.03;;
75441;SDS011;64019;48.312;14.226;2024-03-08T09:46:39;15.60;;;6.80;;
75441;SDS011;64019;48.312;14.226;2024-03-08T09:49:08;16.47;;;7.40;;
75441;SDS011;64019;48.312;14.226;2024-03-08T09:51:36;14.83;;;7.03;;
75441;SDS011;64019;48.312;14.226;2024-03-08T09:54:05;15.33;;;7.90;;
75441;SDS011;64019;48.312;14.226;2024-03-08T09:56:37;11.27;;;5.20;;
75441;SDS011;64019;48.312;14.226;2024-03-08T09:59:09;14.17;;;7.07;;
75441;SDS011;64019;48.312;14.226;2024-03-08T10:01:35;18.17;;;8.33;;
75441;SDS011;64019;48.312;14.226;2024-03-08T10:04:02;18.13;;;8.03;;
75441;SDS011;64019;48.312;14.226;2024-03-08T10:06:27;17.50;;;7.90;;
75441;SDS011;64019;48.312;14.226;2024-03-08T10:08:53;16.70;;;7.43;;
75441;SDS011;64019;48.312;14.226;2024-03-08T10:11:20;20.73;;;7.37;;
75441;SDS011;64019;48.312;14.226;2024-03-08T10:13:47;25.63;;;8.07;;
75441;SDS011;64019;48.312;14.226;2024-03-08T10:16:15;23.33;;;7.13;;
75441;SDS011;64019;48.312;14.226;2024-03-08T10:18:42;22.97;;;8.17;;
75441;SDS011;64019;48.312;14.226;2024-03-08T10:21:08;18.83;;;7.57;;
75441;SDS011;64019;48.312;14.226;2024-03-08T10:23:40;15.83;;;7.80;;
75441;SDS011;64019;48.312;14.226;2024-03-08T10:26:15;18.20;;;6.83;;
75441;SDS011;64019;48.312;14.226;2024-03-08T10:28:46;18.03;;;7.93;;
75441;SDS011;64019;48.312;14.226;2024-03-08T10:31:16;14.13;;;6.47;;
75441;SDS011;64019;48.312;14.226;2024-03-08T10:33:43;11.90;;;5.73;;
75441;SDS011;64019;48.312;14.226;2024-03-08T10:36:13;12.37;;;6.97;;
75441;SDS011;64019;48.312;14.226;2024-03-08T10:38:40;17.33;;;7.07;;
75441;SDS011;64019;48.312;14.226;2024-03-08T10:41:08;13.37;;;6.50;;
75441;SDS011;64019;48.312;14.226;2024-03-08T10:46:24;14.30;;;6.67;;
75441;SDS011;64019;48.312;14.226;2024-03-08T10:49:25;9.93;;;5.43;;
75441;SDS011;64019;48.312;14.226;2024-03-08T10:51:55;16.20;;;6.77;;
75441;SDS011;64019;48.312;14.226;2024-03-08T10:54:23;16.23;;;6.50;;
75441;SDS011;64019;48.312;14.226;2024-03-08T10:56:51;13.30;;;6.07;;
75441;SDS011;64019;48.312;14.226;2024-03-08T10:59:17;12.73;;;5.77;;
75441;SDS011;64019;48.312;14.226;2024-03-08T11:01:45;11.87;;;5.43;;
75441;SDS011;64019;48.312;14.226;2024-03-08T11:04:11;16.00;;;6.77;;
75441;SDS011;64019;48.312;14.226;2024-03-08T11:09:03;9.33;;;5.10;;
75441;SDS011;64019;48.312;14.226;2024-03-08T11:11:47;9.57;;;5.27;;
75441;SDS011;64019;48.312;14.226;2024-03-08T11:14:42;13.70;;;6.30;;
75441;SDS011;64019;48.312;14.226;2024-03-08T11:17:09;9.20;;;5.40;;
75441;SDS011;64019;48.312;14.226;2024-03-08T11:19:34;10.97;;;5.33;;
75441;SDS011;64019;48.312;14.226;2024-03-08T11:22:01;12.10;;;5.30;;
75441;SDS011;64019;48.312;14.226;2024-03-08T11:24:33;11.13;;;5.43;;
75441;SDS011;64019;48.312;14.226;2024-03-08T11:27:03;12.83;;;5.93;;
75441;SDS011;64019;48.312;14.226;2024-03-08T11:32:10;16.07;;;5.40;;
75441;SDS011;64019;48.312;14.226;2024-03-08T11:34:40;14.97;;;6.23;;
75441;SDS011;64019;48.312;14.226;2024-03-08T11:37:18;15.53;;;6.90;;
75441;SDS011;64019;48.312;14.226;2024-03-08T11:39:49;16.33;;;6.33;;
75441;SDS011;64019;48.312;14.226;2024-03-08T11:42:16;18.23;;;6.63;;
75441;SDS011;64019;48.312;14.226;2024-03-08T11:44:46;10.00;;;4.60;;
75441;SDS011;64019;48.312;14.226;2024-03-08T11:47:12;12.60;;;6.10;;
75441;SDS011;64019;48.312;14.226;2024-03-08T11:49:39;10.87;;;5.50;;
75441;SDS011;64019;48.312;14.226;2024-03-08T11:52:11;11.07;;;5.03;;
75441;SDS011;64019;48.312;14.226;2024-03-08T11:54:38;12.57;;;5.80;;
75441;SDS011;64019;48.312;14.226;2024-03-08T11:57:04;13.67;;;5.53;;
75441;SDS011;64019;48.312;14.226;2024-03-08T11:59:30;9.93;;;5.27;;
75441;SDS011;64019;48.312;14.226;2024-03-08T12:02:04;12.07;;;5.67;;
75441;SDS011;64019;48.312;14.226;2024-03-08T12:04:31;16.10;;;6.37;;
75441;SDS011;64019;48.312;14.226;2024-03-08T12:07:00;11.23;;;5.30;;
75441;SDS011;64019;48.312;14.226;2024-03-08T12:09:28;12.03;;;5.00;;
75441;SDS011;64019;48.312;14.226;2024-03-08T12:11:54;12.10;;;6.00;;
75441;SDS011;64019;48.312;14.226;2024-03-08T12:14:20;13.30;;;5.87;;
75441;SDS011;64019;48.312;14.226;2024-03-08T12:16:46;13.00;;;6.33;;
75441;SDS011;64019;48.312;14.226;2024-03-08T12:19:13;12.00;;;5.90;;
75441;SDS011;64019;48.312;14.226;2024-03-08T12:21:41;12.40;;;6.37;;
75441;SDS011;64019;48.312;14.226;2024-03-08T12:24:14;12.63;;;6.00;;
75441;SDS011;64019;48.312;14.226;2024-03-08T12:26:46;12.13;;;5.53;;
75441;SDS011;64019;48.312;14.226;2024-03-08T12:29:25;14.77;;;6.07;;
75441;SDS011;64019;48.312;14.226;2024-03-08T12:31:57;11.73;;;5.33;;
75441;SDS011;64019;48.312;14.226;2024-03-08T12:34:25;11.20;;;5.50;;
75441;SDS011;64019;48.312;14.226;2024-03-08T12:36:53;14.30;;;6.23;;
75441;SDS011;64019;48.312;14.226;2024-03-08T12:39:20;14.00;;;5.87;;
75441;SDS011;64019;48.312;14.226;2024-03-08T12:41:56;12.10;;;5.90;;
75441;SDS011;64019;48.312;14.226;2024-03-08T12:44:25;14.37;;;6.17;;
75441;SDS011;64019;48.312;14.226;2024-03-08T12:46:51;11.50;;;4.87;;
75441;SDS011;64019;48.312;14.226;2024-03-08T12:49:18;13.37;;;5.07;;
75441;SDS011;64019;48.312;14.226;2024-03-08T12:51:47;13.67;;;6.20;;
75441;SDS011;64019;48.312;14.226;2024-03-08T12:54:13;13.33;;;5.70;;
75441;SDS011;64019;48.312;14.226;2024-03-08T12:56:39;11.57;;;5.97;;
75441;SDS011;64019;48.312;14.226;2024-03-08T12:59:06;12.40;;;5.50;;
75441;SDS011;64019;48.312;14.226;2024-03-08T13:01:33;13.73;;;4.87;;
75441;SDS011;64019;48.312;14.226;2024-03-08T13:03:59;11.03;;;5.60;;
75441;SDS011;64019;48.312;14.226;2024-03-08T13:06:27;13.97;;;6.10;;
75441;SDS011;64019;48.312;14.226;2024-03-08T13:08:54;9.83;;;5.27;;
75441;SDS011;64019;48.312;14.226;2024-03-08T13:11:20;15.07;;;6.27;;
75441;SDS011;64019;48.312;14.226;2024-03-08T13:13:47;12.20;;;5.23;;
75441;SDS011;64019;48.312;14.226;2024-03-08T13:16:13;11.77;;;5.63;;
75441;SDS011;64019;48.312;14.226;2024-03-08T13:18:42;14.60;;;5.40;;
75441;SDS011;64019;48.312;14.226;2024-03-08T13:21:08;12.87;;;5.43;;
75441;SDS011;64019;48.312;14.226;2024-03-08T13:23:36;12.83;;;5.30;;
75441;SDS011;64019;48.312;14.226;2024-03-08T13:26:06;11.90;;;4.80;;
75441;SDS011;64019;48.312;14.226;2024-03-08T13:28:42;7.50;;;3.77;;
75441;SDS011;64019;48.312;14.226;2024-03-08T13:31:08;12.53;;;5.13;;
75441;SDS011;64019;48.312;14.226;2024-03-08T13:33:35;9.90;;;4.33;;
75441;SDS011;64019;48.312;14.226;2024-03-08T13:36:06;10.80;;;5.13;;
75441;SDS011;64019;48.312;14.226;2024-03-08T13:38:39;10.37;;;5.47;;
75441;SDS011;64019;48.312;14.226;2024-03-08T13:41:24;10.37;;;4.57;;
75441;SDS011;64019;48.312;14.226;2024-03-08T13:43:50;11.93;;;4.77;;
75441;SDS011;64019;48.312;14.226;2024-03-08T13:46:16;12.70;;;4.70;;
75441;SDS011;64019;48.312;14.226;2024-03-08T13:48:42;8.97;;;4.70;;
75441;SDS011;64019;48.312;14.226;2024-03-08T13:51:08;11.07;;;4.90;;
75441;SDS011;64019;48.312;14.226;2024-03-08T13:53:40;10.27;;;4.77;;
75441;SDS011;64019;48.312;14.226;2024-03-08T13:56:06;9.17;;;4.83;;
75441;SDS011;64019;48.312;14.226;2024-03-08T13:58:35;10.10;;;4.40;;
75441;SDS011;64019;48.312;14.226;2024-03-08T14:01:01;9.37;;;4.30;;
75441;SDS011;64019;48.312;14.226;2024-03-08T14:03:28;11.13;;;5.03;;
75441;SDS011;64019;48.312;14.226;2024-03-08T14:05:54;12.73;;;4.80;;
75441;SDS011;64019;48.312;14.226;2024-03-08T14:08:20;11.07;;;4.43;;
75441;SDS011;64019;48.312;14.226;2024-03-08T14:10:47;12.17;;;4.87;;
75441;SDS011;64019;48.312;14.226;2024-03-08T14:13:14;12.63;;;5.37;;
75441;SDS011;64019;48.312;14.226;2024-03-08T14:15:43;13.03;;;6.17;;
75441;SDS011;64019;48.312;14.226;2024-03-08T14:18:11;12.50;;;5.90;;
75441;SDS011;64019;48.312;14.226;2024-03-08T14:20:38;11.20;;;5.23;;
75441;SDS011;64019;48.312;14.226;2024-03-08T14:23:04;10.73;;;4.73;;
75441;SDS011;64019;48.312;14.226;2024-03-08T14:25:33;10.53;;;4.70;;
75441;SDS011;64019;48.312;14.226;2024-03-08T14:27:58;11.43;;;4.93;;
75441;SDS011;64019;48.312;14.226;2024-03-08T14:30:31;12.07;;;5.13;;
75441;SDS011;64019;48.312;14.226;2024-03-08T14:33:03;10.33;;;5.67;;
75441;SDS011;64019;48.312;14.226;2024-03-08T14:35:30;9.97;;;4.53;;
75441;SDS011;64019;48.312;14.226;2024-03-08T14:37:57;9.83;;;4.83;;
75441;SDS011;64019;48.312;14.226;2024-03-08T14:40:26;11.90;;;5.00;;
75441;SDS011;64019;48.312;14.226;2024-03-08T14:42:52;8.67;;;4.57;;
75441;SDS011;64019;48.312;14.226;2024-03-08T14:45:18;11.97;;;4.67;;
75441;SDS011;64019;48.312;14.226;2024-03-08T14:47:47;10.70;;;4.90;;
75441;SDS011;64019;48.312;14.226;2024-03-08T14:50:15;11.07;;;5.30;;
75441;SDS011;64019;48.312;14.226;2024-03-08T14:52:44;9.20;;;4.80;;
75441;SDS011;64019;48.312;14.226;2024-03-08T14:55:14;9.07;;;4.10;;
75441;SDS011;64019;48.312;14.226;2024-03-08T14:57:41;11.73;;;5.00;;
75441;SDS011;64019;48.312;14.226;2024-03-08T15:00:07;10.53;;;4.83;;